createdAt,value
2022-09-27T00:09:20.359Z,25.17
2022-09-27T00:24:22.801Z,24.8
2022-09-27T00:39:25.159Z,24.34
2022-09-27T00:54:27.554Z,24.32
2022-09-27T01:09:29.884Z,24.04
2022-09-27T01:24:32.185Z,22.76
2022-09-27T01:39:34.535Z,22.67
2022-09-27T01:54:36.795Z,22.48
2022-09-27T02:09:39.118Z,22.15
2022-09-27T02:24:41.479Z,21.09
2022-09-27T02:39:43.766Z,20.91
2022-09-27T02:54:46.205Z,20.36
2022-09-27T03:09:48.461Z,19.85
2022-09-27T03:24:50.714Z,19.43
2022-09-27T03:39:53.255Z,19.48
2022-09-27T03:55:01.154Z,18.56
2022-09-27T04:10:04.431Z,18.81
2022-09-27T04:25:06.659Z,18.65
2022-09-27T04:40:09.210Z,17.59
2022-09-27T04:55:11.731Z,17.88
2022-09-27T05:10:14.000Z,17.71
2022-09-27T05:25:16.285Z,17.81
2022-09-27T05:40:39.655Z,16.95
2022-09-27T05:55:43.413Z,17.23
2022-09-27T06:10:45.685Z,17.05
2022-09-27T06:25:48.051Z,17.16
2022-09-27T06:40:50.309Z,17.1
2022-09-27T06:55:52.594Z,17.04
2022-09-27T07:10:54.877Z,16.36
2022-09-27T07:25:57.125Z,15.98
2022-09-27T07:40:59.429Z,16.14
2022-09-27T07:56:01.758Z,16.12
2022-09-27T08:11:04.052Z,15.74
2022-09-27T08:26:06.395Z,15.68
2022-09-27T08:41:08.886Z,15.44
2022-09-27T08:56:11.370Z,15.52
2022-09-27T09:11:13.613Z,15.37
2022-09-27T09:26:15.938Z,14.91
2022-09-27T09:41:18.409Z,15.18
2022-09-27T09:56:20.726Z,14.12
2022-09-27T10:11:23.140Z,14.58
2022-09-27T10:26:25.419Z,14.37
2022-09-27T10:41:27.720Z,14.55
2022-09-27T10:56:29.992Z,14.29
2022-09-27T11:11:32.321Z,14.54
2022-09-27T11:26:34.605Z,14.48
2022-09-27T11:41:36.854Z,14.24
2022-09-27T11:56:39.208Z,13.92
2022-09-27T12:11:41.492Z,13.89
2022-09-27T12:26:43.769Z,13.86
2022-09-27T12:41:46.072Z,13.64
2022-09-27T12:56:48.387Z,13.49
2022-09-27T13:11:50.667Z,13.16
2022-09-27T13:26:53.012Z,13.02
2022-09-27T13:41:55.349Z,12.84
2022-09-27T13:56:57.645Z,12.74
2022-09-27T14:11:59.971Z,12.9
2022-09-27T14:27:02.285Z,13.07
2022-09-27T14:42:04.590Z,13.04
2022-09-27T14:57:06.871Z,14.44
2022-09-27T15:12:09.318Z,14.26
2022-09-27T15:27:11.582Z,15.86
2022-09-27T15:42:13.905Z,16.04
2022-09-27T15:57:16.241Z,18.35
2022-09-27T16:12:18.574Z,26.61
2022-09-27T16:27:20.905Z,25.12
2022-09-27T16:42:23.180Z,21.46
2022-09-27T16:57:25.469Z,21.53
2022-09-27T17:12:27.856Z,21.07
2022-09-27T17:27:30.226Z,20.75
2022-09-27T17:42:32.513Z,28.99
2022-09-27T17:57:34.781Z,27.43
2022-09-27T18:12:37.062Z,24.24
2022-09-27T18:27:39.383Z,24.17
2022-09-27T18:42:41.741Z,23.52
2022-09-27T18:57:44.058Z,24.05
2022-09-27T19:12:46.344Z,24.31
2022-09-27T19:27:48.645Z,24.69
2022-09-27T19:42:50.956Z,25.85
2022-09-27T19:57:53.444Z,27.23
2022-09-27T20:12:55.772Z,28.3
2022-09-27T20:27:58.098Z,28.43
2022-09-27T20:43:00.525Z,28.64
2022-09-27T20:58:02.780Z,29.06
2022-09-27T21:13:04.993Z,28.65
2022-09-27T21:28:07.387Z,29.28
2022-09-27T21:43:09.705Z,28.11
2022-09-27T21:58:12.208Z,29.76
2022-09-27T22:13:14.533Z,30.49
2022-09-27T22:28:16.823Z,30.79
2022-09-27T22:43:19.265Z,29.92
2022-09-27T22:58:21.624Z,30.77
2022-09-27T23:13:23.920Z,30.73
2022-09-27T23:28:26.283Z,29.69
2022-09-27T23:43:28.591Z,29.55
2022-09-27T23:58:31.126Z,29.11
